Archival Weather

Chicago O'Hare International

Chicago, Illinois (KORD)

Report from: Sunday, December 4, 2022 8:51 AM CST
Current time: Friday, June 14, 2024 7:15 AM CDT

Current weather – Weather history – Daily summaries
Weather forecast

Temperature-3.3°C (26.1°F)
Wind chill-10.3°C (13.5°F)
Dew point-11.7°C (10.9°F)
Winds 14 kts (7.2 m/s, 16.1 mph) Southwest (230°)
Wind gusts 22 kts (11.3 m/s, 25.3 mph)
Visibility10 mi. (16.1 km)
Clouds Sky clear
Altimeter30.21 in.Hg (1023 mB)
Relative humidity52 %
Density altitude-2,576 ft. (-785 m)
Sea-level pressure102.4 kPa (1024 mB, 30.24 in.Hg)
Remarks System requires maintenance
Automated weather observing station with precipitation discriminator
Pressure falling more quickly
Flight conditions Visual Meteorological Conditions
Raw dataKORD 041451Z 23014G22KT 10SM CLR M03/M12 A3021 RMK AO2 SLP240 T10331117 58010 $
An error has occurred. This application may no longer respond until reloaded. Reload 🗙